Whiteman Air Force Base
KSZL : now visible

Airfield :











YOU CAN JOIN US ON...

 
LOGIN :

Register | Disclaimer

   EN    FR    IT 

 









Legend :    VFR   Marginal VFR   IFR   Intensive IFR   Very Intensive IFR
Visi :
Ceiling :
>= 8 km
>= 3000ft
5 to 8 km
1000 to 3000 ft
1500m to 5 km
500 to 1000 ft
800 to 1500m
200 to 500 ft
< 800m
< 200 ft
Symbols :   Thunderstorms  Fog  Heavy snow  Heavy precipitations  Wind > 20 kt






- Airport Elevation : 870 ft


KSZL - Whiteman Air Force Base

CURRENT METAR :
  • 291359Z 02007KT 2SM -SN BR BKN005 OVC011 M03/M03 A3012 RMK AO2A CIG 011V018 CIG 005 RWY01 SLP212 P0000 T10301030 $

EXPIRED METARs :
  • 291256Z 02008KT 2SM -SN BR BKN006 M03/M03 A3010 RMK AO2A BKN V OVC CIG 005 RWY01 SLP205 P0000 T10291029 $
  • 291156Z 02006KT 2SM -SN BR OVC007 M02/M02 A3007 RMK AO2A SNE1056UPB1056E35SNB35 CIG 006 RWY01 SLP194 4/001 P0000 60001 70001 T10241024 11017 21024 53007 $

TAF AMD TAF KSZL
Valid from the 29 at 12:00 until the 30 at 17:00 UTC


291250Z 2912/3017 02009KT 4800 -SN BR BKN005 OVC009 620099 621008 QNH3006INS
BECMG 2914/2915 01006KT 9999 NSW OVC010 620109 QNH3012INS
BECMG 3002/3003 02006KT 6000 BR OVC008 620084 QNH3017INS
BECMG 3015/3016 08006KT 9999 NSW BKN015 OVC025 620153 QNH3019INS TXM01/2921Z TNM03/2913Z



MET'MAP, your aeronautical weather chart ! - Copyright ORBIFLY December 2007 - Disclaimer

ORBIFLY MET'MAP TEAM :

Programming & Development : Alexandra Zaïnal
Concept & original design : Baudouin d'Aumeries
Assistance for programming : Marc-Olivier Méhu
Technical & hardware support : Manuel Goepfert

Contact : metmap@orbifly.com




SOURCES & CREDITS :

   NOAA       Earth
Advisory